»·PEaware :: DCM825 KGCN-KPSP

DCM825 :: KGCN-KPSP

FLIGHT INFORMATION

Flight Status: Arrived
Operator: DotCom
More flights by this operator :: More flights under this callsign
Pilot: Tyler J. (19619)
Aircraft: CESSNA 525A CITATION CJ2
(C25A)
More flights by this aircraft type
Origin: KGCN Grand Canyon Natl Park
United States
Destination: KPSP Palm Springs Intl
United States
More flights between these airports :: More routes between these airports
Route: PARKS4 PGS EED SBONO1
File this flight plan on PilotEdge
Remarks:
Altitude:
(Current/Filed)
34,000ft
Speed:
(Current/Filed)
430kts
Departed: 23-Feb-19 07:31 PM
Arrived: 23-Feb-19 08:28 PM
Distance/Time
Traveled:
249nm/0:57
Distance/Time
To Go:
Arrived

Flight Plot

Page will automatically refresh every two minutes.

Flight plan parsing failed; only flown route is shown


Map Options




Map Legend


Flown Route
Filed Route
Departure Airport
Arrival Airport
Navaid (VOR, NDB)
Fix

Horizontal Profiles

Position Reports

Time Latitude Longitude Heading Altitude Ground
Speed
23-Feb-19 19:04 35.956560 -112.139045 130 6613ft 0kts
23-Feb-19 19:05 35.956560 -112.139045 130 6613ft 0kts
23-Feb-19 19:06 35.956560 -112.139045 130 6613ft 0kts
23-Feb-19 19:07 35.956560 -112.139045 130 6613ft 0kts
23-Feb-19 19:08 35.956560 -112.139045 130 6613ft 0kts
23-Feb-19 19:09 35.956560 -112.139045 130 6613ft 0kts
23-Feb-19 19:10 35.956560 -112.139045 130 6613ft 0kts
23-Feb-19 19:11 35.956560 -112.139045 130 6613ft 0kts
23-Feb-19 19:12 35.956560 -112.139045 130 6613ft 0kts
23-Feb-19 19:13 35.956560 -112.139045 130 6613ft 0kts
23-Feb-19 19:14 35.956560 -112.139045 130 6613ft 0kts
23-Feb-19 19:15 35.956559 -112.139045 130 6613ft 0kts
23-Feb-19 19:16 35.956559 -112.139044 130 6613ft 0kts
23-Feb-19 19:17 35.956558 -112.139043 130 6613ft 0kts
23-Feb-19 19:18 35.956796 -112.139167 314 6613ft 0kts
23-Feb-19 19:19 35.956798 -112.139169 314 6613ft 0kts
23-Feb-19 19:20 35.956799 -112.139170 314 6613ft 0kts
23-Feb-19 19:21 35.956800 -112.139172 314 6613ft 0kts
23-Feb-19 19:22 35.956802 -112.139174 314 6613ft 0kts
23-Feb-19 19:23 35.956803 -112.139175 314 6613ft 0kts
23-Feb-19 19:24 35.956804 -112.139177 314 6613ft 0kts
23-Feb-19 19:25 35.956806 -112.139179 314 6613ft 0kts
23-Feb-19 19:26 35.956807 -112.139180 314 6613ft 0kts
23-Feb-19 19:27 35.958343 -112.138472 28 6613ft 14kts
23-Feb-19 19:28 35.960505 -112.136629 314 6613ft 4kts
23-Feb-19 19:29 35.960805 -112.137083 309 6613ft 3kts
23-Feb-19 19:30 35.954310 -112.144950 220 6613ft 127kts
23-Feb-19 19:31 35.915116 -112.187116 220 8724ft 238kts
23-Feb-19 19:32 35.885686 -112.258742 298 10246ft 258kts
23-Feb-19 19:33 35.918596 -112.337562 267 14375ft 277kts
23-Feb-19 19:34 35.896669 -112.427027 253 18362ft 272kts
23-Feb-19 19:35 35.871357 -112.527317 250 20589ft 313kts
23-Feb-19 19:36 35.846271 -112.630887 251 23591ft 317kts
23-Feb-19 19:38 35.821047 -112.735940 251 25756ft 322kts
23-Feb-19 19:39 35.795502 -112.842448 251 27277ft 326kts
23-Feb-19 19:40 35.769622 -112.950008 251 28372ft 329kts
23-Feb-19 19:41 35.743501 -113.058160 250 29212ft 330kts
23-Feb-19 19:42 35.717260 -113.166329 250 29832ft 331kts
23-Feb-19 19:43 35.690976 -113.274260 250 30399ft 327kts
23-Feb-19 19:44 35.664709 -113.381609 250 30697ft 328kts
23-Feb-19 19:45 35.638347 -113.488955 250 30970ft 327kts
23-Feb-19 19:46 35.586620 -113.579622 229 31135ft 328kts
23-Feb-19 19:47 35.521347 -113.655872 226 32155ft 308kts
23-Feb-19 19:48 35.460714 -113.723197 226 34066ft 284kts
23-Feb-19 19:49 35.399732 -113.790373 225 34340ft 304kts
23-Feb-19 19:50 35.336981 -113.858888 225 34339ft 315kts
23-Feb-19 19:51 35.270742 -113.930849 225 34339ft 320kts
23-Feb-19 19:52 35.203845 -114.003335 225 34338ft 322kts
23-Feb-19 19:53 35.136689 -114.075950 225 34338ft 322kts
23-Feb-19 19:54 35.069442 -114.148511 225 34338ft 322kts
23-Feb-19 19:55 35.002297 -114.220808 225 34338ft 323kts
23-Feb-19 19:55 34.946069 -114.281228 225 34338ft 323kts
23-Feb-19 19:57 34.867503 -114.365470 225 34338ft 323kts
23-Feb-19 19:58 34.799908 -114.437825 225 34338ft 323kts
23-Feb-19 19:58 34.752193 -114.506940 235 34338ft 320kts
23-Feb-19 19:59 34.701912 -114.596302 237 34338ft 320kts
23-Feb-19 20:00 34.653007 -114.686602 237 34338ft 320kts
23-Feb-19 20:02 34.596251 -114.792228 237 34338ft 320kts
23-Feb-19 20:02 34.555749 -114.867640 237 34338ft 320kts
23-Feb-19 20:03 34.507552 -114.958291 237 34339ft 320kts
23-Feb-19 20:04 34.444749 -115.035908 230 34295ft 323kts
23-Feb-19 20:05 34.386806 -115.113298 230 32481ft 295kts
23-Feb-19 20:06 34.331159 -115.188020 230 30446ft 306kts
23-Feb-19 20:07 34.274772 -115.263647 230 28402ft 316kts
23-Feb-19 20:08 34.215187 -115.343372 230 26207ft 323kts
23-Feb-19 20:09 34.155886 -115.422450 230 24008ft 314kts
23-Feb-19 20:10 34.096866 -115.501043 231 21806ft 318kts
23-Feb-19 20:11 34.040339 -115.575980 231 19699ft 285kts
23-Feb-19 20:12 33.987667 -115.645902 231 17775ft 279kts
23-Feb-19 20:13 33.935980 -115.714842 234 15908ft 261kts
23-Feb-19 20:14 33.914569 -115.787693 259 15061ft 218kts
23-Feb-19 20:15 33.907476 -115.866403 264 14302ft 260kts
23-Feb-19 20:16 33.898620 -115.952559 250 11903ft 248kts
23-Feb-19 20:17 33.852483 -116.015538 231 9158ft 264kts
23-Feb-19 20:18 33.802454 -116.079741 233 6954ft 252kts
23-Feb-19 20:19 33.755249 -116.145340 234 6624ft 250kts
23-Feb-19 20:20 33.711798 -116.206594 241 4617ft 229kts
23-Feb-19 20:21 33.705263 -116.278559 272 3811ft 218kts
23-Feb-19 20:22 33.715204 -116.353348 292 3841ft 244kts
23-Feb-19 20:23 33.744393 -116.422062 301 2664ft 205kts
23-Feb-19 20:24 33.777429 -116.460684 324 1732ft 133kts
23-Feb-19 20:25 33.807602 -116.487688 322 910ft 133kts
23-Feb-19 20:26 33.831230 -116.509003 323 481ft 51kts
23-Feb-19 20:27 33.835268 -116.509202 55 481ft 17kts
23-Feb-19 20:28 33.830493 -116.504273 147 481ft 32kts
23-Feb-19 20:29 33.824341 -116.498683 138 481ft 22kts
23-Feb-19 20:30 33.824201 -116.497734 102 481ft 0kts
23-Feb-19 20:31 33.824201 -116.497734 102 481ft 0kts
23-Feb-19 20:32 33.824201 -116.497734 102 481ft 0kts
23-Feb-19 20:33 33.824201 -116.497734 102 481ft 0kts
23-Feb-19 20:34 33.824201 -116.497734 102 481ft 0kts
23-Feb-19 20:35 33.824201 -116.497734 102 481ft 0kts
23-Feb-19 20:36 33.824201 -116.497734 102 481ft 0kts

Navigation Log

Ident Type
Flight plan parsing failed, navigation log unavailable